Time;durP1;ratioP1;P1;durP2;ratioP2;P2;SDS_P1;SDS_P2;PMS_P1;PMS_P2;Temp;Humidity;BMP_temperature;BMP_pressure;BME280_temperature;BME280_humidity;BME280_pressure;Samples;Min_cycle;Max_cycle;Signal;HPM_P1;HPM_P2
2021/12/27 00:00:08;;;;;;;32.67;15.20;;;;;;;2.39;98.30;100041.75;5031265;28;20040;-76
2021/12/27 00:02:36;;;;;;;28.52;15.30;;;;;;;2.44;98.42;100037.09;5037994;28;20033;-76
2021/12/27 00:05:02;;;;;;;32.33;16.02;;;;;;;2.43;98.71;100040.59;5008317;28;20083;-75
2021/12/27 00:07:28;;;;;;;31.13;15.27;;;;;;;2.43;98.97;100037.19;5030307;28;20032;-77
2021/12/27 00:09:54;;;;;;;30.13;15.88;;;;;;;2.39;99.12;100030.72;5041527;28;20526;-77
2021/12/27 00:12:20;;;;;;;32.80;16.25;;;;;;;2.42;99.38;100033.03;5029062;28;20041;-77
2021/12/27 00:14:45;;;;;;;30.92;15.63;;;;;;;2.36;99.70;100030.97;5032414;28;20036;-77
2021/12/27 00:17:11;;;;;;;30.90;15.80;;;;;;;2.40;99.79;100030.59;5012030;28;20029;-77
2021/12/27 00:19:36;;;;;;;34.72;16.52;;;;;;;2.34;100.00;100036.19;5033135;28;20482;-77
2021/12/27 00:22:02;;;;;;;34.97;17.25;;;;;;;2.35;100.00;100027.56;5015331;28;20145;-77
2021/12/27 00:24:27;;;;;;;35.17;17.55;;;;;;;2.37;100.00;100028.25;5039189;28;20117;-79
2021/12/27 00:26:53;;;;;;;35.85;16.88;;;;;;;2.40;100.00;100022.91;5032673;28;20442;-78
2021/12/27 00:29:18;;;;;;;34.17;16.50;;;;;;;2.33;100.00;100025.13;5019851;28;20025;-78
2021/12/27 00:31:44;;;;;;;38.33;18.52;;;;;;;2.33;100.00;100022.56;5031024;28;20118;-78
2021/12/27 00:34:10;;;;;;;34.60;17.33;;;;;;;2.40;100.00;100024.66;5036622;28;20037;-78
2021/12/27 00:36:35;;;;;;;36.25;19.00;;;;;;;2.37;100.00;100022.34;5032775;28;20033;-77
2021/12/27 00:39:02;;;;;;;37.13;18.73;;;;;;;2.30;100.00;100017.72;5036330;28;20053;-79
2021/12/27 00:41:27;;;;;;;37.75;18.45;;;;;;;2.34;100.00;100018.28;5009078;28;20034;-77
2021/12/27 00:43:53;;;;;;;34.60;16.67;;;;;;;2.39;100.00;100016.16;5032607;28;20060;-78
2021/12/27 00:46:18;;;;;;;33.97;16.23;;;;;;;2.37;100.00;100019.78;5017226;28;20502;-76
2021/12/27 00:48:43;;;;;;;31.77;16.05;;;;;;;2.35;100.00;100012.22;5032682;28;20107;-77
2021/12/27 00:51:10;;;;;;;31.40;15.43;;;;;;;2.32;100.00;100020.16;5033387;28;20051;-79
2021/12/27 00:53:36;;;;;;;30.73;15.35;;;;;;;2.33;100.00;100017.47;5037780;28;20037;-78
2021/12/27 00:56:01;;;;;;;31.38;15.45;;;;;;;2.38;100.00;100009.44;5032430;28;20120;-78
2021/12/27 00:58:27;;;;;;;29.55;15.38;;;;;;;2.40;100.00;100012.69;5011946;28;20472;-78
2021/12/27 01:00:52;;;;;;;33.65;16.00;;;;;;;2.36;100.00;100006.19;5027816;28;20082;-79
2021/12/27 01:03:20;;;;;;;32.47;16.27;;;;;;;2.34;100.00;100002.94;5019580;28;20091;-77
2021/12/27 01:05:47;;;;;;;34.78;16.27;;;;;;;2.37;100.00;100004.44;5044514;28;20132;-78
2021/12/27 01:08:13;;;;;;;30.88;14.63;;;;;;;2.30;100.00;100006.69;5033034;28;20041;-78
2021/12/27 01:13:25;;;;;;;33.72;15.82;;;;;;;2.38;100.00;99998.38;5033982;28;20034;-77
2021/12/27 01:16:10;;;;;;;29.52;14.57;;;;;;;2.29;100.00;99993.06;5019253;28;20048;-79
2021/12/27 01:18:44;;;;;;;36.15;16.75;;;;;;;2.40;100.00;99999.09;5031376;28;20033;-78
2021/12/27 01:21:10;;;;;;;35.78;16.15;;;;;;;2.38;100.00;100000.94;5035260;28;20056;-77
2021/12/27 01:23:37;;;;;;;39.85;18.83;;;;;;;2.33;100.00;99999.53;5031023;28;20107;-78
2021/12/27 01:26:02;;;;;;;38.85;17.98;;;;;;;2.27;100.00;100002.59;5031766;28;20069;-78
2021/12/27 01:28:28;;;;;;;37.75;18.05;;;;;;;2.28;100.00;99999.13;5017858;28;20033;-79
2021/12/27 01:30:53;;;;;;;32.78;16.85;;;;;;;2.34;100.00;99997.81;5032081;28;20037;-78
2021/12/27 01:33:21;;;;;;;33.38;16.25;;;;;;;2.42;100.00;99999.75;5029060;28;20034;-78
2021/12/27 01:35:48;;;;;;;32.13;15.70;;;;;;;2.44;100.00;99988.47;5039566;28;20495;-79
2021/12/27 01:38:14;;;;;;;38.95;17.77;;;;;;;2.37;100.00;99997.56;5032582;28;20034;-78
2021/12/27 01:40:42;;;;;;;39.42;19.42;;;;;;;2.40;100.00;99987.09;5013687;28;20037;-80
2021/12/27 01:43:13;;;;;;;35.25;17.58;;;;;;;2.38;100.00;99994.06;5031173;28;20072;-79
2021/12/27 01:45:43;;;;;;;37.63;18.08;;;;;;;2.40;100.00;99987.09;5030156;28;20472;-79
2021/12/27 01:48:10;;;;;;;36.60;16.98;;;;;;;2.40;100.00;99994.75;5030269;28;20112;-78
2021/12/27 01:50:42;;;;;;;38.30;19.20;;;;;;;2.39;100.00;99984.66;5031568;28;20041;-78
2021/12/27 01:53:09;;;;;;;34.90;18.25;;;;;;;2.39;100.00;99989.75;5025241;28;20040;-78
2021/12/27 01:55:35;;;;;;;38.85;18.55;;;;;;;2.41;100.00;99983.59;5015952;28;20128;-80
2021/12/27 01:58:01;;;;;;;42.10;19.58;;;;;;;2.42;100.00;99990.34;5031242;28;20369;-78
2021/12/27 02:00:27;;;;;;;39.78;18.30;;;;;;;2.47;100.00;99983.09;5044365;28;20115;-78
2021/12/27 02:02:53;;;;;;;36.97;18.98;;;;;;;2.44;100.00;99983.34;5027590;28;20536;-79
2021/12/27 02:05:19;;;;;;;38.70;18.75;;;;;;;2.39;100.00;99984.66;5030186;28;20105;-78
2021/12/27 02:07:44;;;;;;;41.05;19.55;;;;;;;2.37;100.00;99983.97;5032084;28;20033;-77
2021/12/27 02:10:11;;;;;;;36.00;17.15;;;;;;;2.46;100.00;99988.34;5029448;28;20499;-79
2021/12/27 02:12:38;;;;;;;37.55;17.40;;;;;;;2.47;100.00;99980.53;5036559;28;20102;-78
2021/12/27 02:15:09;;;;;;;37.13;17.35;;;;;;;2.46;100.00;99981.47;5033015;28;20071;-79
2021/12/27 02:17:36;;;;;;;39.50;17.60;;;;;;;2.50;100.00;99982.84;5030891;28;20064;-79
2021/12/27 02:20:04;;;;;;;39.22;17.88;;;;;;;2.45;100.00;99984.16;5029452;28;20045;-78
2021/12/27 02:22:34;;;;;;;39.22;18.10;;;;;;;2.46;100.00;99980.66;5032415;28;20037;-78
2021/12/27 02:25:00;;;;;;;36.05;17.85;;;;;;;2.45;100.00;99972.19;5034624;28;20897;-79
2021/12/27 02:27:25;;;;;;;36.72;18.77;;;;;;;2.49;100.00;99975.31;5018817;28;20037;-78
2021/12/27 02:29:51;;;;;;;35.45;17.52;;;;;;;2.47;100.00;99970.31;5030478;28;20029;-79
2021/12/27 02:32:16;;;;;;;37.20;17.83;;;;;;;2.52;100.00;99969.94;5029090;28;20033;-79
2021/12/27 02:34:42;;;;;;;40.83;18.17;;;;;;;2.47;100.00;99966.94;5051500;22;20033;-70
2021/12/27 02:37:07;;;;;;;39.28;18.80;;;;;;;2.51;100.00;99964.00;5031251;28;20049;-69
2021/12/27 02:39:33;;;;;;;34.28;18.02;;;;;;;2.48;100.00;99964.25;5035426;28;20099;-69
2021/12/27 02:41:59;;;;;;;35.45;17.85;;;;;;;2.51;100.00;99961.44;5048611;28;20108;-69
2021/12/27 02:44:24;;;;;;;36.25;18.17;;;;;;;2.51;100.00;99956.31;5026895;28;20506;-69
2021/12/27 02:46:50;;;;;;;35.10;16.73;;;;;;;2.63;100.00;99961.38;5026051;28;20025;-70
2021/12/27 02:49:15;;;;;;;34.65;16.02;;;;;;;2.58;100.00;99966.06;5028461;28;20527;-70
2021/12/27 02:51:41;;;;;;;33.03;15.70;;;;;;;2.60;100.00;99957.34;5028262;28;20030;-69
2021/12/27 02:54:07;;;;;;;30.05;16.15;;;;;;;2.60;100.00;99964.19;5023465;28;20044;-72
2021/12/27 02:56:34;;;;;;;33.78;15.95;;;;;;;2.62;100.00;99959.75;5028110;28;20460;-70
2021/12/27 02:59:00;;;;;;;32.33;16.73;;;;;;;2.62;100.00;99954.63;5010422;28;20029;-71
2021/12/27 03:01:26;;;;;;;34.70;17.42;;;;;;;2.55;100.00;99950.97;5027912;28;20040;-69
2021/12/27 03:03:52;;;;;;;32.38;16.33;;;;;;;2.67;100.00;99952.50;5026055;28;20036;-70
2021/12/27 03:06:18;;;;;;;36.03;17.58;;;;;;;2.63;100.00;99966.50;5037297;28;20491;-69
2021/12/27 03:08:46;;;;;;;33.40;16.92;;;;;;;2.67;100.00;99950.75;5035017;28;20495;-69
2021/12/27 03:11:12;;;;;;;29.05;15.00;;;;;;;2.62;100.00;99940.09;5031560;28;20025;-69
2021/12/27 03:13:44;;;;;;;32.08;15.77;;;;;;;2.67;100.00;99934.59;5047025;28;20156;-69
2021/12/27 03:16:13;;;;;;;32.85;15.05;;;;;;;2.67;100.00;99934.59;5030680;28;20032;-69
2021/12/27 03:18:42;;;;;;;31.58;15.10;;;;;;;2.73;100.00;99941.75;5011047;28;20049;-69
2021/12/27 03:21:08;;;;;;;28.88;14.70;;;;;;;2.76;100.00;99933.84;5023735;28;20041;-69
2021/12/27 03:23:37;;;;;;;30.17;14.57;;;;;;;2.66;100.00;99928.66;5046425;28;20037;-70
2021/12/27 03:26:04;;;;;;;27.60;14.20;;;;;;;2.67;100.00;99921.78;5030330;28;20563;-70
2021/12/27 03:28:30;;;;;;;30.90;15.13;;;;;;;2.65;100.00;99937.28;5031851;28;20049;-69
2021/12/27 03:30:57;;;;;;;34.10;15.25;;;;;;;2.69;100.00;99928.44;5030389;28;20038;-69
2021/12/27 03:33:24;;;;;;;28.00;14.32;;;;;;;2.66;100.00;99935.53;5028967;28;20112;-70
2021/12/27 03:36:00;;;;;;;30.95;14.88;;;;;;;2.69;100.00;99932.72;5030368;28;20498;-70
2021/12/27 03:38:28;;;;;;;30.40;14.55;;;;;;;2.73;100.00;99936.63;5012479;28;20186;-70
2021/12/27 03:40:53;;;;;;;27.00;13.73;;;;;;;2.78;100.00;99934.53;5030706;28;20048;-69
2021/12/27 03:43:19;;;;;;;31.67;14.90;;;;;;;2.73;100.00;99926.41;5031546;28;20029;-71
2021/12/27 03:45:45;;;;;;;30.98;14.85;;;;;;;2.77;100.00;99934.63;5034904;28;20467;-69
2021/12/27 03:48:11;;;;;;;33.00;15.55;;;;;;;2.78;100.00;99934.53;5037483;28;20811;-69
2021/12/27 03:50:38;;;;;;;29.42;13.65;;;;;;;2.77;100.00;99932.06;5031604;28;20036;-70
2021/12/27 03:53:05;;;;;;;30.85;16.63;;;;;;;2.80;100.00;99935.19;5030984;28;20036;-70
2021/12/27 03:55:31;;;;;;;29.95;15.00;;;;;;;2.80;100.00;99927.53;5039273;28;20081;-69
2021/12/27 03:58:07;;;;;;;33.63;16.70;;;;;;;2.72;100.00;99928.16;5032406;28;20057;-69
2021/12/27 04:01:00;;;;;;;32.72;15.70;;;;;;;2.75;100.00;99924.56;5030769;28;20120;-70
2021/12/27 04:03:25;;;;;;;;;;;;;;;2.78;100.00;99920.91;5033242;28;20025;-69
2021/12/27 04:05:51;;;;;;;30.67;14.52;;;;;;;2.82;100.00;99924.84;5028392;28;19928;-70
2021/12/27 04:08:18;;;;;;;33.17;15.77;;;;;;;2.76;100.00;99923.59;5012290;28;20049;-69
2021/12/27 04:10:45;;;;;;;30.90;16.50;;;;;;;2.72;100.00;99922.22;5038573;28;20333;-70
2021/12/27 04:13:12;;;;;;;32.70;16.13;;;;;;;2.80;100.00;99916.47;5022772;28;20108;-70
2021/12/27 04:15:39;;;;;;;33.13;16.35;;;;;;;2.82;100.00;99912.84;5030104;28;20030;-70
2021/12/27 04:18:09;;;;;;;32.88;16.13;;;;;;;2.74;100.00;99910.13;5032059;28;20152;-71
2021/12/27 04:20:35;;;;;;;32.17;16.42;;;;;;;2.83;100.00;99898.31;5029593;28;20026;-69
2021/12/27 04:23:01;;;;;;;31.25;15.75;;;;;;;2.85;100.00;99899.00;5030256;28;20064;-70
2021/12/27 04:25:27;;;;;;;29.25;13.45;;;;;;;2.79;100.00;99892.63;5037004;28;20487;-70
2021/12/27 04:27:52;;;;;;;32.58;15.57;;;;;;;2.80;100.00;99890.88;5030813;28;20033;-70
2021/12/27 04:30:19;;;;;;;28.80;13.98;;;;;;;2.78;100.00;99890.19;5030671;28;20028;-70
2021/12/27 04:32:46;;;;;;;27.45;14.32;;;;;;;2.78;100.00;99890.19;5029556;28;20041;-69
2021/12/27 04:35:13;;;;;;;28.83;15.20;;;;;;;2.78;100.00;99891.00;5028565;28;20164;-70
2021/12/27 04:37:40;;;;;;;29.05;15.15;;;;;;;2.74;100.00;99894.75;5036403;28;20041;-70
2021/12/27 04:40:09;;;;;;;30.98;15.68;;;;;;;2.73;100.00;99891.38;5049502;28;20984;-71
2021/12/27 04:42:36;;;;;;;31.33;15.68;;;;;;;2.70;100.00;99889.06;5028562;28;20038;-69
2021/12/27 04:45:05;;;;;;;29.02;14.90;;;;;;;2.73;100.00;99890.56;5028449;28;20076;-70
2021/12/27 04:47:30;;;;;;;28.35;15.23;;;;;;;2.84;100.00;99893.03;5027165;28;20037;-70
2021/12/27 04:49:56;;;;;;;29.90;15.43;;;;;;;2.89;100.00;99890.91;5039734;28;20033;-70
2021/12/27 04:52:22;;;;;;;28.42;14.85;;;;;;;2.79;100.00;99877.25;5029925;28;20120;-69
2021/12/27 04:54:47;;;;;;;31.15;14.20;;;;;;;2.89;100.00;99877.31;5029157;28;20041;-70
2021/12/27 04:57:13;;;;;;;28.05;13.63;;;;;;;2.81;100.00;99872.81;5028945;28;20065;-70
2021/12/27 04:59:39;;;;;;;30.08;14.30;;;;;;;2.88;100.00;99873.94;5047995;28;20076;-70
2021/12/27 05:02:05;;;;;;;26.75;13.02;;;;;;;2.90;100.00;99878.91;5028046;28;20044;-70
2021/12/27 05:04:31;;;;;;;27.80;13.20;;;;;;;2.84;100.00;99876.88;5050114;28;20131;-71
2021/12/27 05:06:56;;;;;;;26.73;13.05;;;;;;;2.87;100.00;99879.97;5037188;28;20123;-69
2021/12/27 05:09:22;;;;;;;28.38;14.35;;;;;;;2.93;100.00;99876.09;5035493;28;20162;-70
2021/12/27 05:11:48;;;;;;;28.92;14.52;;;;;;;2.93;100.00;99873.53;5037964;28;20025;-70
2021/12/27 05:14:14;;;;;;;32.60;15.88;;;;;;;2.88;100.00;99881.63;5035975;28;20068;-69
2021/12/27 05:16:40;;;;;;;32.17;16.58;;;;;;;2.91;100.00;99878.78;5014656;28;20033;-69
2021/12/27 05:19:05;;;;;;;32.33;15.70;;;;;;;2.89;100.00;99878.09;5029903;28;20483;-70
2021/12/27 05:21:31;;;;;;;28.42;14.73;;;;;;;2.88;100.00;99868.81;5021516;28;20045;-70
2021/12/27 05:23:57;;;;;;;27.33;14.90;;;;;;;2.89;100.00;99859.38;5025481;28;20550;-70
2021/12/27 05:26:22;;;;;;;26.92;13.63;;;;;;;2.88;100.00;99866.25;5046852;28;20033;-69
2021/12/27 05:28:48;;;;;;;25.98;13.15;;;;;;;2.89;100.00;99872.97;5028457;28;20124;-69
2021/12/27 05:31:14;;;;;;;28.38;14.18;;;;;;;2.92;100.00;99864.25;5026999;28;20399;-70
2021/12/27 05:33:40;;;;;;;27.13;13.45;;;;;;;2.90;100.00;99861.81;5028619;28;20068;-71
2021/12/27 05:36:06;;;;;;;25.90;13.02;;;;;;;2.89;100.00;99855.06;5027491;28;20044;-70
2021/12/27 05:38:32;;;;;;;26.13;12.85;;;;;;;2.93;100.00;99855.59;5031996;28;20041;-69
2021/12/27 05:40:58;;;;;;;25.52;13.80;;;;;;;2.90;100.00;99848.19;5038576;28;20032;-70
2021/12/27 05:43:24;;;;;;;26.60;12.68;;;;;;;2.93;100.00;99855.59;5021767;28;20025;-70
2021/12/27 05:45:50;;;;;;;31.08;13.85;;;;;;;3.01;100.00;99854.97;5029639;28;20079;-69
2021/12/27 05:48:16;;;;;;;25.98;13.00;;;;;;;3.03;100.00;99850.50;5031675;28;20437;-69
2021/12/27 05:50:43;;;;;;;22.83;12.13;;;;;;;2.99;100.00;99847.41;5033676;28;20064;-69
2021/12/27 05:53:09;;;;;;;27.13;13.98;;;;;;;2.96;100.00;99847.69;5030237;28;20068;-69
2021/12/27 05:55:35;;;;;;;27.63;12.88;;;;;;;3.00;100.00;99851.59;5033980;28;20025;-69
2021/12/27 05:58:03;;;;;;;30.08;13.73;;;;;;;3.02;100.00;99852.28;5026650;28;20037;-69
2021/12/27 06:00:28;;;;;;;26.17;13.63;;;;;;;3.02;100.00;99856.59;5021823;28;20033;-69
2021/12/27 06:02:55;;;;;;;23.98;12.88;;;;;;;3.05;100.00;99853.75;5026184;28;20522;-69
2021/12/27 06:05:22;;;;;;;28.20;13.55;;;;;;;2.98;100.00;99848.34;5015870;28;20035;-69
2021/12/27 06:07:49;;;;;;;27.50;13.65;;;;;;;3.04;100.00;99847.03;5036542;28;20030;-71
2021/12/27 06:10:16;;;;;;;24.23;12.63;;;;;;;3.00;100.00;99850.78;5030287;28;20446;-69
2021/12/27 06:12:42;;;;;;;25.25;13.00;;;;;;;3.03;100.00;99841.09;5034841;28;20523;-71
2021/12/27 06:15:08;;;;;;;24.73;14.00;;;;;;;3.01;100.00;99837.84;5037318;28;20060;-72
2021/12/27 06:17:34;;;;;;;27.65;13.93;;;;;;;3.01;100.00;99842.94;5031869;28;20044;-70
2021/12/27 06:20:03;;;;;;;27.05;14.07;;;;;;;3.09;100.00;99845.69;5011321;28;20061;-71
2021/12/27 06:22:29;;;;;;;28.20;13.32;;;;;;;3.01;100.00;99844.72;5028975;28;20496;-70
2021/12/27 06:24:54;;;;;;;28.42;13.73;;;;;;;3.04;100.00;99839.34;5011925;28;20073;-70
2021/12/27 06:27:20;;;;;;;28.85;13.73;;;;;;;3.10;100.00;99849.06;5028233;28;20106;-70
2021/12/27 06:29:46;;;;;;;26.92;13.80;;;;;;;3.09;100.00;99837.22;5032300;28;20041;-69
2021/12/27 06:32:13;;;;;;;29.80;13.35;;;;;;;3.10;100.00;99843.94;5028298;28;20530;-69
2021/12/27 06:34:40;;;;;;;25.23;13.00;;;;;;;3.07;100.00;99836.50;5033453;28;20044;-69
2021/12/27 06:37:06;;;;;;;28.23;14.93;;;;;;;3.12;100.00;99842.06;5027041;28;20064;-70
2021/12/27 06:39:32;;;;;;;30.52;15.02;;;;;;;3.13;100.00;99846.25;5030783;28;20044;-69
2021/12/27 06:41:58;;;;;;;28.52;14.43;;;;;;;3.07;100.00;99845.03;5027190;28;20061;-69
2021/12/27 06:44:23;;;;;;;28.30;13.40;;;;;;;3.14;100.00;99832.47;5028209;28;20030;-69
2021/12/27 06:46:49;;;;;;;25.92;12.40;;;;;;;3.17;100.00;99837.34;5027823;28;20810;-69
2021/12/27 06:49:15;;;;;;;27.45;13.55;;;;;;;3.23;100.00;99833.44;5029222;28;20503;-70
2021/12/27 06:51:41;;;;;;;26.10;13.32;;;;;;;3.18;100.00;99835.59;5038345;28;20129;-70
2021/12/27 06:54:07;;;;;;;28.23;13.55;;;;;;;3.10;100.00;99837.06;5050832;28;20104;-70
2021/12/27 06:56:32;;;;;;;26.48;12.60;;;;;;;3.03;100.00;99851.34;5038168;28;20034;-69
2021/12/27 06:58:59;;;;;;;25.90;12.23;;;;;;;3.11;100.00;99836.13;5039691;28;20037;-69
2021/12/27 07:01:24;;;;;;;24.33;12.52;;;;;;;3.14;100.00;99834.25;5046492;28;20013;-69
2021/12/27 07:03:50;;;;;;;27.05;13.32;;;;;;;3.22;100.00;99835.22;5023362;28;20099;-69
2021/12/27 07:06:16;;;;;;;24.15;12.05;;;;;;;3.16;100.00;99830.59;5023579;28;20099;-69
2021/12/27 07:08:42;;;;;;;25.50;12.35;;;;;;;3.15;100.00;99829.00;5032684;28;20495;-69
2021/12/27 07:11:07;;;;;;;25.65;12.38;;;;;;;3.11;100.00;99825.88;5035681;28;20044;-69
2021/12/27 07:13:33;;;;;;;26.30;12.27;;;;;;;3.22;100.00;99816.44;5040335;28;20037;-70
2021/12/27 07:15:59;;;;;;;24.15;12.57;;;;;;;3.22;100.00;99822.41;5027632;28;20487;-70
2021/12/27 07:18:25;;;;;;;21.73;12.00;;;;;;;3.21;100.00;99830.22;5030750;28;21524;-69
2021/12/27 07:20:53;;;;;;;24.98;12.35;;;;;;;3.21;100.00;99822.53;5031226;28;20033;-71
2021/12/27 07:23:19;;;;;;;22.15;11.10;;;;;;;3.19;100.00;99819.28;5029096;28;20083;-69
2021/12/27 07:25:45;;;;;;;23.80;12.23;;;;;;;3.19;100.00;99809.84;5037883;28;20040;-70
2021/12/27 07:28:12;;;;;;;22.25;11.32;;;;;;;3.28;100.00;99818.50;5019096;28;20403;-70
2021/12/27 07:30:37;;;;;;;21.70;11.48;;;;;;;3.26;100.00;99812.69;5032845;28;20117;-70
2021/12/27 07:33:03;;;;;;;25.40;11.98;;;;;;;3.31;100.00;99819.03;5032790;28;20183;-71
2021/12/27 07:35:29;;;;;;;23.05;13.18;;;;;;;3.29;100.00;99827.78;5030677;28;20575;-69
2021/12/27 07:37:55;;;;;;;25.17;12.85;;;;;;;3.37;100.00;99829.69;5033496;28;20116;-69
2021/12/27 07:40:21;;;;;;;22.83;11.57;;;;;;;3.32;100.00;99819.84;5032156;28;20087;-69
2021/12/27 07:42:47;;;;;;;25.15;11.90;;;;;;;3.31;100.00;99816.50;5029817;28;20040;-69
2021/12/27 07:45:13;;;;;;;23.75;13.05;;;;;;;3.37;100.00;99815.16;5029678;28;20037;-71
2021/12/27 07:47:39;;;;;;;25.40;12.57;;;;;;;3.36;100.00;99812.72;5044759;28;20041;-70
2021/12/27 07:50:06;;;;;;;28.85;11.90;;;;;;;3.39;100.00;99810.69;5028011;28;20041;-69
2021/12/27 07:52:32;;;;;;;22.67;11.57;;;;;;;3.39;100.00;99810.69;5031460;28;20037;-70
2021/12/27 07:54:57;;;;;;;27.85;13.80;;;;;;;3.39;100.00;99807.28;5031477;28;20025;-69
2021/12/27 07:57:23;;;;;;;21.25;11.07;;;;;;;3.30;100.00;99807.16;5034226;28;20033;-70
2021/12/27 07:59:50;;;;;;;25.10;11.10;;;;;;;3.26;100.00;99810.13;5040188;28;20064;-72
2021/12/27 08:02:16;;;;;;;22.75;10.52;;;;;;;3.31;100.00;99797.72;5031432;28;20064;-69
2021/12/27 08:04:43;;;;;;;23.50;11.02;;;;;;;3.31;100.00;99808.81;5037102;28;20029;-70
2021/12/27 08:07:10;;;;;;;23.15;12.02;;;;;;;3.40;100.00;99811.50;5034568;28;20038;-69
2021/12/27 08:09:35;;;;;;;24.58;12.85;;;;;;;3.36;100.00;99803.25;5031043;28;20510;-69
2021/12/27 08:12:01;;;;;;;26.60;13.23;;;;;;;3.35;100.00;99805.94;5030822;28;20037;-69
2021/12/27 08:14:27;;;;;;;31.10;13.85;;;;;;;3.34;100.00;99809.47;5039326;28;20044;-69
2021/12/27 08:16:53;;;;;;;33.70;15.52;;;;;;;3.31;100.00;99808.81;5046884;28;20037;-70
2021/12/27 08:19:19;;;;;;;25.67;12.32;;;;;;;3.30;100.00;99806.38;5051201;28;20041;-69
2021/12/27 08:21:45;;;;;;;24.88;12.52;;;;;;;3.29;100.00;99800.41;5031351;28;20038;-70
2021/12/27 08:24:10;;;;;;;23.98;11.45;;;;;;;3.25;100.00;99803.38;5030210;28;20033;-71
2021/12/27 08:26:36;;;;;;;34.13;16.15;;;;;;;3.33;100.00;99805.28;5035785;28;20560;-70
2021/12/27 08:29:08;;;;;;;29.98;15.70;;;;;;;3.29;100.00;99808.09;5048255;28;20416;-69
2021/12/27 08:31:34;;;;;;;24.73;13.27;;;;;;;3.31;100.00;99801.09;5027439;28;20041;-69
2021/12/27 08:34:00;;;;;;;24.83;12.27;;;;;;;3.35;100.00;99800.81;5041037;28;20033;-70
2021/12/27 08:36:26;;;;;;;24.02;11.98;;;;;;;3.29;100.00;99799.59;5031432;28;20022;-70
2021/12/27 08:38:52;;;;;;;26.00;11.18;;;;;;;3.34;100.00;99787.22;5038800;28;20403;-69
2021/12/27 08:41:19;;;;;;;20.20;9.65;;;;;;;3.38;100.00;99787.75;5032220;28;20033;-69
2021/12/27 08:43:45;;;;;;;23.10;11.20;;;;;;;3.38;100.00;99788.56;5033290;28;20032;-70
2021/12/27 08:46:11;;;;;;;21.58;10.55;;;;;;;3.42;100.00;99786.53;5034541;28;20379;-70
2021/12/27 08:48:38;;;;;;;24.98;11.25;;;;;;;3.44;100.00;99785.44;5028789;28;20029;-70
2021/12/27 08:51:03;;;;;;;24.10;11.80;;;;;;;3.39;100.00;99792.75;5027311;28;20047;-70
2021/12/27 08:53:29;;;;;;;27.13;13.20;;;;;;;3.45;100.00;99781.94;5021595;28;20390;-69
2021/12/27 08:55:55;;;;;;;24.98;13.02;;;;;;;3.49;100.00;99767.13;5033221;28;20064;-70
2021/12/27 08:58:21;;;;;;;26.67;12.15;;;;;;;3.51;100.00;99778.03;5038033;28;20086;-70
2021/12/27 09:00:47;;;;;;;21.10;11.05;;;;;;;3.58;100.00;99779.13;5035801;28;20029;-69
2021/12/27 09:03:13;;;;;;;26.42;11.68;;;;;;;3.57;100.00;99780.06;5031904;28;20056;-69
2021/12/27 09:05:41;;;;;;;23.98;11.98;;;;;;;3.64;100.00;99775.22;5031801;28;20041;-70
2021/12/27 09:08:08;;;;;;;21.65;11.43;;;;;;;3.69;100.00;99783.28;5004782;28;20076;-69
2021/12/27 09:10:34;;;;;;;25.10;12.40;;;;;;;3.70;100.00;99785.72;5023517;28;20053;-69
2021/12/27 09:13:00;;;;;;;22.23;12.32;;;;;;;3.70;100.00;99782.34;5022658;28;20056;-69
2021/12/27 09:15:28;;;;;;;24.45;11.68;;;;;;;3.74;100.00;99781.13;5023852;28;20608;-69
2021/12/27 09:17:54;;;;;;;22.58;11.52;;;;;;;3.66;100.00;99774.13;5033265;28;20044;-69
2021/12/27 09:20:21;;;;;;;25.88;12.48;;;;;;;3.79;100.00;99780.72;5030846;28;20522;-70
2021/12/27 09:22:47;;;;;;;23.95;11.50;;;;;;;3.78;100.00;99781.66;5051435;28;20065;-69
2021/12/27 09:25:12;;;;;;;21.13;11.68;;;;;;;3.76;100.00;99770.75;5038403;28;20071;-70
2021/12/27 09:27:38;;;;;;;26.40;12.13;;;;;;;3.73;100.00;99779.53;5033015;28;20094;-69
2021/12/27 09:30:05;;;;;;;24.65;11.80;;;;;;;3.80;100.00;99772.06;5027868;28;20034;-70
2021/12/27 09:32:31;;;;;;;21.23;11.05;;;;;;;3.88;100.00;99770.47;5031337;28;20037;-70
2021/12/27 09:34:57;;;;;;;21.20;11.32;;;;;;;3.94;100.00;99763.97;5029091;28;20083;-68
2021/12/27 09:37:23;;;;;;;24.98;12.20;;;;;;;4.03;100.00;99760.56;5037159;28;20029;-70
2021/12/27 09:39:53;;;;;;;27.13;11.85;;;;;;;4.04;100.00;99753.69;5024919;28;20037;-70
2021/12/27 09:42:25;;;;;;;21.00;11.27;;;;;;;4.08;100.00;99760.94;5027336;28;20128;-71
2021/12/27 09:44:53;;;;;;;24.48;11.65;;;;;;;4.12;100.00;99768.38;5046609;28;20045;-69
2021/12/27 09:47:19;;;;;;;22.35;11.80;;;;;;;4.24;100.00;99764.72;5024572;28;20029;-69
2021/12/27 09:49:46;;;;;;;26.38;13.18;;;;;;;4.29;100.00;99767.63;5030652;28;20041;-69
2021/12/27 09:52:13;;;;;;;31.15;13.70;;;;;;;4.33;100.00;99758.72;5025706;28;20041;-70
2021/12/27 09:54:39;;;;;;;32.97;13.60;;;;;;;4.28;100.00;99758.34;5023201;28;20104;-69
2021/12/27 09:57:05;;;;;;;27.85;12.52;;;;;;;4.31;100.00;99762.38;5023315;28;20503;-69
2021/12/27 09:59:31;;;;;;;42.28;16.05;;;;;;;4.35;100.00;99751.69;5025052;28;20034;-69
2021/12/27 10:01:57;;;;;;;56.78;20.15;;;;;;;4.38;100.00;99751.41;5034113;28;20033;-70
2021/12/27 10:04:23;;;;;;;53.97;19.33;;;;;;;4.43;100.00;99746.66;5030403;28;20033;-70
2021/12/27 10:06:49;;;;;;;44.42;18.20;;;;;;;4.47;100.00;99745.41;5025968;28;20041;-69
2021/12/27 10:09:15;;;;;;;79.50;23.85;;;;;;;4.46;100.00;99745.56;5030926;28;20514;-69
2021/12/27 10:11:42;;;;;;;74.75;25.40;;;;;;;4.62;100.00;99742.38;5033192;28;20391;-69
2021/12/27 10:14:24;;;;;;;49.72;20.13;;;;;;;4.60;100.00;99741.72;5030391;28;20069;-70
2021/12/27 10:16:55;;;;;;;49.83;19.63;;;;;;;4.76;100.00;99728.25;5027045;28;20064;-70
2021/12/27 10:19:23;;;;;;;31.88;14.27;;;;;;;4.75;100.00;99724.88;5014439;28;20036;-69
2021/12/27 10:21:51;;;;;;;29.00;14.52;;;;;;;4.70;100.00;99721.94;5034903;28;20507;-70
2021/12/27 10:24:20;;;;;;;19.75;10.93;;;;;;;4.72;100.00;99717.44;5027028;28;20037;-68
2021/12/27 10:26:50;;;;;;;26.17;12.20;;;;;;;4.71;100.00;99715.03;5020126;28;20053;-69
2021/12/27 10:29:29;;;;;;;23.45;12.07;;;;;;;4.74;100.00;99725.00;5027834;28;20072;-69
2021/12/27 10:32:10;;;;;;;26.60;12.52;;;;;;;4.79;100.00;99715.94;5040240;28;20038;-68
2021/12/27 10:34:43;;;;;;;24.60;11.60;;;;;;;4.82;100.00;99719.97;5020873;28;20072;-69
2021/12/27 10:37:20;;;;;;;22.60;11.18;;;;;;;4.85;100.00;99717.09;5027824;28;20410;-69
2021/12/27 10:39:55;;;;;;;22.00;11.82;;;;;;;4.95;100.00;99715.28;5023520;28;20450;-69
2021/12/27 10:42:24;;;;;;;20.60;12.50;;;;;;;4.97;100.00;99720.25;5025364;28;20561;-69
2021/12/27 10:44:54;;;;;;;19.80;10.38;;;;;;;5.09;100.00;99724.25;5002402;28;20087;-68
2021/12/27 10:47:36;;;;;;;19.80;10.68;;;;;;;5.20;99.70;99718.09;5027542;28;20692;-68
2021/12/27 10:50:07;;;;;;;22.45;10.95;;;;;;;5.18;99.77;99718.22;5019992;28;20108;-67
2021/12/27 10:52:45;;;;;;;19.95;10.80;;;;;;;5.17;100.00;99720.94;5025757;28;20629;-68
2021/12/27 10:55:13;;;;;;;21.38;11.23;;;;;;;5.23;100.00;99713.44;5028382;28;20026;-67
2021/12/27 10:57:39;;;;;;;22.65;10.75;;;;;;;5.27;99.95;99711.38;5026915;28;20037;-68
2021/12/27 11:00:24;;;;;;;16.80;9.82;;;;;;;5.37;99.57;99701.84;5027573;28;20038;-69
2021/12/27 11:02:51;;;;;;;21.23;10.50;;;;;;;5.33;99.73;99702.28;5022540;28;20382;-68
2021/12/27 11:05:25;;;;;;;21.65;11.27;;;;;;;5.37;100.00;99703.59;5037682;28;20092;-69
2021/12/27 11:07:59;;;;;;;27.73;12.27;;;;;;;5.33;100.00;99708.25;5027167;28;20149;-69
2021/12/27 11:10:27;;;;;;;26.10;11.93;;;;;;;5.34;100.00;99711.63;5028069;28;20029;-69
2021/12/27 11:12:59;;;;;;;19.83;10.80;;;;;;;5.33;99.96;99707.41;5028698;28;20900;-68
2021/12/27 11:15:30;;;;;;;22.10;12.07;;;;;;;5.37;99.61;99696.69;5039521;28;20116;-68
2021/12/27 11:17:56;;;;;;;23.33;12.10;;;;;;;5.36;99.87;99692.50;5018368;28;20539;-69